createdAt,value
2019-04-10T00:01:23.689Z,11.99
2019-04-10T00:03:55.320Z,11.99
2019-04-10T00:06:27.893Z,12.00
2019-04-10T00:08:59.653Z,11.99
2019-04-10T00:11:32.335Z,12.03
2019-04-10T00:14:04.156Z,11.92
2019-04-10T00:16:36.167Z,11.88
2019-04-10T00:19:08.735Z,11.80
2019-04-10T00:21:40.455Z,11.67
2019-04-10T00:24:12.026Z,11.69
2019-04-10T00:26:43.612Z,11.65
2019-04-10T00:29:16.138Z,11.70
2019-04-10T00:31:48.702Z,11.72
2019-04-10T00:34:21.231Z,11.75
2019-04-10T00:36:53.352Z,11.77
2019-04-10T00:39:24.955Z,11.73
2019-04-10T00:41:56.811Z,11.67
2019-04-10T00:44:28.431Z,11.63
2019-04-10T00:47:00.232Z,11.53
2019-04-10T00:49:33.525Z,11.58
2019-04-10T00:52:06.016Z,11.63
2019-04-10T00:54:37.703Z,11.67
2019-04-10T00:57:09.484Z,11.72
2019-04-10T00:59:42.076Z,11.63
2019-04-10T01:02:13.783Z,11.65
2019-04-10T01:04:45.398Z,11.56
2019-04-10T01:07:16.994Z,11.58
2019-04-10T01:09:48.575Z,11.63
2019-04-10T01:12:20.167Z,11.60
2019-04-10T01:14:51.724Z,11.46
2019-04-10T01:17:24.285Z,11.43
2019-04-10T01:19:56.490Z,11.36
2019-04-10T01:22:28.204Z,11.37
2019-04-10T01:24:59.891Z,11.35
2019-04-10T01:27:31.977Z,11.38
2019-04-10T01:30:04.273Z,11.44
2019-04-10T01:32:37.613Z,11.44
2019-04-10T01:35:09.942Z,11.46
2019-04-10T01:37:51.457Z,11.49
2019-04-10T01:40:15.016Z,11.51
2019-04-10T01:42:59.964Z,11.51
2019-04-10T01:45:19.849Z,11.53
2019-04-10T01:47:51.475Z,11.51
2019-04-10T01:50:23.234Z,11.49
2019-04-10T01:52:55.525Z,11.51
2019-04-10T01:55:30.267Z,11.51
2019-04-10T01:58:03.036Z,11.50
2019-04-10T02:00:35.692Z,11.49
2019-04-10T02:03:07.304Z,11.48
2019-04-10T02:05:38.940Z,11.48
2019-04-10T02:08:13.554Z,11.48
2019-04-10T02:10:44.670Z,11.47
2019-04-10T02:13:17.158Z,11.47
2019-04-10T02:15:48.841Z,11.30
2019-04-10T02:18:21.378Z,11.32
2019-04-10T02:20:54.194Z,11.35
2019-04-10T02:23:26.081Z,11.33
2019-04-10T02:25:57.696Z,11.35
2019-04-10T02:28:29.275Z,11.37
2019-04-10T02:31:02.377Z,11.37
2019-04-10T02:33:35.616Z,11.37
2019-04-10T02:36:08.490Z,11.34
2019-04-10T02:38:54.530Z,11.27
2019-04-10T02:41:14.135Z,11.18
2019-04-10T02:43:47.327Z,11.14
2019-04-10T02:46:19.669Z,11.11
2019-04-10T02:48:51.962Z,11.09
2019-04-10T02:51:25.541Z,11.10
2019-04-10T02:53:57.965Z,11.12
2019-04-10T02:56:30.811Z,11.08
2019-04-10T02:59:04.988Z,11.09
2019-04-10T03:01:37.897Z,11.12
2019-04-10T03:04:11.386Z,11.08
2019-04-10T03:06:43.067Z,10.95
2019-04-10T03:09:32.195Z,10.95
2019-04-10T03:11:47.998Z,10.98
2019-04-10T03:14:21.035Z,10.95
2019-04-10T03:16:53.847Z,10.97
2019-04-10T03:19:25.579Z,10.92
2019-04-10T03:21:57.662Z,10.94
2019-04-10T03:24:29.508Z,10.98
2019-04-10T03:27:01.743Z,11.01
2019-04-10T03:29:33.363Z,10.94
2019-04-10T03:32:23.246Z,10.96
2019-04-10T03:34:59.107Z,10.94
2019-04-10T03:37:30.711Z,10.89
2019-04-10T03:40:03.489Z,10.90
2019-04-10T03:42:35.099Z,10.88
2019-04-10T03:45:07.569Z,10.89
2019-04-10T03:47:39.725Z,10.92
2019-04-10T03:50:11.684Z,10.93
2019-04-10T03:52:43.336Z,10.91
2019-04-10T03:55:16.731Z,10.87
2019-04-10T03:57:49.104Z,10.86
2019-04-10T04:00:21.095Z,10.89
2019-04-10T04:02:54.032Z,10.93
2019-04-10T04:05:26.617Z,10.97
2019-04-10T04:08:01.201Z,10.99
2019-04-10T04:10:32.981Z,10.99
2019-04-10T04:13:06.040Z,10.85
2019-04-10T04:15:37.990Z,10.90
2019-04-10T04:18:09.552Z,10.93
2019-04-10T04:20:41.297Z,10.95
2019-04-10T04:23:13.774Z,10.96
2019-04-10T04:25:46.234Z,10.90
2019-04-10T04:28:18.908Z,10.80
2019-04-10T04:30:52.340Z,10.79
2019-04-10T04:33:23.864Z,10.76
2019-04-10T04:35:55.476Z,10.79
2019-04-10T04:38:27.700Z,10.80
2019-04-10T04:41:00.448Z,10.80
2019-04-10T04:43:32.742Z,10.82
2019-04-10T04:46:04.403Z,10.80
2019-04-10T04:48:36.894Z,10.81
2019-04-10T04:51:09.007Z,10.83
2019-04-10T04:53:40.655Z,10.86
2019-04-10T04:56:13.359Z,10.87
2019-04-10T04:58:45.626Z,10.82
2019-04-10T05:01:18.916Z,10.80
2019-04-10T05:03:51.208Z,10.73
2019-04-10T05:06:24.846Z,10.79
2019-04-10T05:08:56.887Z,10.74
2019-04-10T05:11:28.842Z,10.76
2019-04-10T05:14:00.891Z,10.82
2019-04-10T05:16:32.982Z,10.89
2019-04-10T05:19:04.563Z,10.97
2019-04-10T05:21:37.287Z,11.02
2019-04-10T05:24:08.973Z,11.05
2019-04-10T05:26:40.614Z,10.99
2019-04-10T05:29:13.170Z,11.00
2019-04-10T05:31:44.859Z,11.10
2019-04-10T05:34:16.488Z,11.18
2019-04-10T05:36:49.052Z,11.19
2019-04-10T05:39:20.802Z,11.19
2019-04-10T05:41:52.395Z,11.23
2019-04-10T05:44:24.019Z,11.25
2019-04-10T05:46:55.605Z,11.29
2019-04-10T05:49:27.251Z,11.34
2019-04-10T05:51:58.871Z,11.40
2019-04-10T05:54:31.120Z,11.42
2019-04-10T05:57:04.001Z,11.35
2019-04-10T05:59:36.854Z,11.33
2019-04-10T06:02:09.406Z,11.29
2019-04-10T06:04:41.248Z,11.01
2019-04-10T06:07:12.880Z,11.03
2019-04-10T06:09:54.040Z,11.10
2019-04-10T06:12:18.155Z,11.00
2019-04-10T06:14:52.517Z,10.87
2019-04-10T06:17:24.657Z,10.85
2019-04-10T06:19:56.695Z,10.87
2019-04-10T06:22:30.237Z,10.92
2019-04-10T06:25:03.916Z,10.97
2019-04-10T06:27:36.737Z,11.07
2019-04-10T06:30:09.970Z,11.08
2019-04-10T06:32:41.580Z,11.13
2019-04-10T06:35:13.617Z,11.16
2019-04-10T06:37:46.290Z,11.18
2019-04-10T06:40:21.257Z,11.17
2019-04-10T06:42:53.942Z,11.25
2019-04-10T06:45:24.598Z,11.33
2019-04-10T06:47:56.163Z,11.43
2019-04-10T06:50:29.439Z,11.65
2019-04-10T06:53:01.165Z,11.88
2019-04-10T06:55:32.760Z,12.11
2019-04-10T06:58:04.372Z,12.31
2019-04-10T07:00:36.946Z,12.52
2019-04-10T07:03:08.707Z,12.72
2019-04-10T07:05:49.689Z,12.81
2019-04-10T07:08:19.048Z,12.83
2019-04-10T07:10:55.419Z,12.76
2019-04-10T07:13:21.287Z,12.76
2019-04-10T07:15:56.325Z,12.85
2019-04-10T07:18:26.425Z,12.93
2019-04-10T07:21:01.070Z,12.98
2019-04-10T07:23:32.354Z,13.02
2019-04-10T07:26:06.019Z,13.09
2019-04-10T07:28:39.116Z,13.23
2019-04-10T07:31:11.652Z,13.35
2019-04-10T07:33:47.138Z,13.36
2019-04-10T07:36:16.644Z,13.40
2019-04-10T07:38:48.914Z,13.21
2019-04-10T07:41:23.076Z,13.18
2019-04-10T07:43:55.841Z,13.15
2019-04-10T07:46:28.211Z,13.32
2019-04-10T07:49:00.701Z,13.23
2019-04-10T07:51:34.099Z,13.28
2019-04-10T07:54:06.126Z,13.28
2019-04-10T07:56:37.781Z,13.24
2019-04-10T07:59:09.381Z,13.33
2019-04-10T08:01:41.976Z,13.42
2019-04-10T08:04:14.888Z,13.30
2019-04-10T08:06:46.874Z,13.18
2019-04-10T08:09:18.887Z,13.33
2019-04-10T08:11:50.991Z,13.00
2019-04-10T08:14:23.723Z,13.21
2019-04-10T08:16:55.436Z,13.18
2019-04-10T08:19:28.176Z,13.30
2019-04-10T08:22:01.203Z,13.39
2019-04-10T08:24:33.083Z,13.54
2019-04-10T08:27:05.874Z,13.57
2019-04-10T08:29:39.336Z,13.52
2019-04-10T08:32:11.876Z,13.71
2019-04-10T08:34:44.275Z,13.58
2019-04-10T08:37:18.757Z,13.64
2019-04-10T08:39:51.405Z,13.67
2019-04-10T08:42:24.469Z,13.48
2019-04-10T08:44:56.405Z,13.65
2019-04-10T08:47:28.047Z,13.66
2019-04-10T08:49:59.709Z,13.66
2019-04-10T08:52:32.507Z,13.81
2019-04-10T08:55:04.221Z,13.87
2019-04-10T08:57:38.171Z,13.98
2019-04-10T09:00:12.206Z,13.94
2019-04-10T09:02:44.445Z,14.03
2019-04-10T09:05:17.956Z,14.17
2019-04-10T09:07:50.553Z,14.36
2019-04-10T09:10:22.649Z,14.30
2019-04-10T09:12:54.571Z,14.23
2019-04-10T09:15:27.743Z,14.08
2019-04-10T09:17:59.812Z,14.02
2019-04-10T09:20:31.422Z,13.86
2019-04-10T09:23:29.777Z,13.96
2019-04-10T09:25:37.496Z,14.11
2019-04-10T09:28:10.285Z,14.12
2019-04-10T09:30:42.763Z,14.09
2019-04-10T09:33:20.980Z,14.30
2019-04-10T09:35:48.861Z,14.40
2019-04-10T09:38:20.951Z,14.39
2019-04-10T09:40:53.303Z,14.41
2019-04-10T09:43:25.371Z,14.27
2019-04-10T09:45:56.967Z,14.47
2019-04-10T09:48:28.565Z,14.58
2019-04-10T09:51:00.314Z,14.70
2019-04-10T09:53:32.937Z,14.66
2019-04-10T09:56:05.257Z,14.62
2019-04-10T09:58:36.855Z,14.80
2019-04-10T10:01:14.760Z,14.84
2019-04-10T10:03:46.561Z,14.84
2019-04-10T10:06:27.167Z,14.88
2019-04-10T10:08:52.304Z,14.66
2019-04-10T10:11:24.589Z,14.67
2019-04-10T10:13:56.428Z,14.75
2019-04-10T10:16:30.165Z,14.91
2019-04-10T10:19:01.646Z,15.11
2019-04-10T10:21:33.212Z,15.30
2019-04-10T10:24:05.004Z,15.47
2019-04-10T10:26:36.607Z,15.60
2019-04-10T10:29:09.046Z,15.70
2019-04-10T10:31:40.761Z,15.57
2019-04-10T10:34:12.399Z,15.69
2019-04-10T10:36:47.372Z,15.82
2019-04-10T10:39:21.086Z,15.59
2019-04-10T10:41:54.434Z,15.41
2019-04-10T10:44:26.044Z,15.57
2019-04-10T10:46:57.988Z,15.70
2019-04-10T10:49:30.632Z,15.67
2019-04-10T10:52:03.578Z,15.43
2019-04-10T10:54:35.293Z,15.47
2019-04-10T10:57:07.088Z,15.60
2019-04-10T10:59:39.718Z,15.84
2019-04-10T11:02:12.459Z,15.79
2019-04-10T11:04:45.287Z,15.91
2019-04-10T11:07:18.713Z,15.82
2019-04-10T11:09:52.904Z,15.65
2019-04-10T11:12:24.591Z,15.61
2019-04-10T11:14:56.319Z,15.79
2019-04-10T11:17:28.294Z,15.85
2019-04-10T11:20:02.284Z,15.93
2019-04-10T11:22:35.447Z,16.12
2019-04-10T11:25:08.053Z,16.19
2019-04-10T11:27:41.859Z,16.27
2019-04-10T11:30:13.962Z,16.33
2019-04-10T11:32:46.278Z,16.18
2019-04-10T11:35:19.061Z,16.21
2019-04-10T11:37:53.599Z,16.13
2019-04-10T11:40:26.476Z,16.26
2019-04-10T11:42:58.166Z,16.29
2019-04-10T11:45:40.698Z,16.25
2019-04-10T11:48:05.989Z,16.15
2019-04-10T11:50:38.604Z,16.28
2019-04-10T11:53:10.606Z,16.17
2019-04-10T11:55:47.801Z,16.23
2019-04-10T11:58:17.782Z,16.16
2019-04-10T12:00:52.441Z,16.29
2019-04-10T12:03:24.632Z,16.37
2019-04-10T12:05:57.719Z,16.30
2019-04-10T12:08:50.330Z,16.00
2019-04-10T12:13:34.536Z,16.17
2019-04-10T12:16:07.073Z,16.06
2019-04-10T12:18:38.826Z,15.86
2019-04-10T12:21:10.449Z,15.96
2019-04-10T12:23:43.131Z,16.20
2019-04-10T12:26:15.838Z,16.10
2019-04-10T12:28:47.593Z,16.15
2019-04-10T12:31:19.744Z,15.99
2019-04-10T12:33:51.422Z,16.18
2019-04-10T12:36:23.022Z,16.54
2019-04-10T12:38:54.650Z,16.61
2019-04-10T12:41:26.242Z,16.55
2019-04-10T12:43:59.040Z,16.44
2019-04-10T12:46:30.742Z,16.50
2019-04-10T12:49:03.723Z,16.53
2019-04-10T12:51:36.301Z,16.51
2019-04-10T12:54:08.023Z,16.46
2019-04-10T12:56:40.165Z,16.44
2019-04-10T12:59:12.059Z,16.41
2019-04-10T13:01:44.798Z,16.58
2019-04-10T13:04:17.936Z,16.26
2019-04-10T13:06:52.345Z,16.31
2019-04-10T13:09:24.132Z,16.61
2019-04-10T13:11:56.524Z,16.72
2019-04-10T13:14:28.614Z,16.83
2019-04-10T13:17:00.597Z,16.93
2019-04-10T13:19:34.164Z,17.06
2019-04-10T13:22:05.616Z,17.02
2019-04-10T13:24:37.539Z,17.10
2019-04-10T13:27:10.371Z,17.17
2019-04-10T13:29:42.657Z,17.12
2019-04-10T13:32:14.385Z,16.92
2019-04-10T13:34:45.995Z,16.88
2019-04-10T13:37:17.995Z,16.91
2019-04-10T13:39:49.672Z,16.77
2019-04-10T13:42:23.141Z,16.69
2019-04-10T13:44:55.743Z,16.58
2019-04-10T13:47:29.120Z,16.73
2019-04-10T13:50:00.850Z,16.87
2019-04-10T13:52:33.003Z,16.74
2019-04-10T13:55:05.264Z,16.77
2019-04-10T13:57:36.968Z,16.58
2019-04-10T14:00:13.440Z,16.51
2019-04-10T14:02:45.762Z,16.69
2019-04-10T14:05:17.991Z,16.63
2019-04-10T14:07:49.564Z,16.56
2019-04-10T14:10:21.575Z,16.66
2019-04-10T14:12:53.559Z,16.67
2019-04-10T14:15:30.143Z,16.36
2019-04-10T14:18:01.953Z,16.36
2019-04-10T14:20:33.737Z,16.42
2019-04-10T14:23:18.464Z,16.31
2019-04-10T14:26:02.303Z,16.29
2019-04-10T14:28:34.069Z,16.28
2019-04-10T14:31:11.725Z,16.06
2019-04-10T14:33:43.338Z,15.92
2019-04-10T14:36:15.902Z,15.93
2019-04-10T14:38:47.611Z,15.99
2019-04-10T14:41:20.041Z,16.03
2019-04-10T14:43:51.701Z,16.05
2019-04-10T14:46:24.224Z,16.10
2019-04-10T14:48:56.996Z,16.11
2019-04-10T14:51:28.613Z,15.94
2019-04-10T14:54:00.212Z,15.86
2019-04-10T14:56:32.454Z,15.77
2019-04-10T14:59:04.173Z,15.88
2019-04-10T15:01:36.057Z,16.05
2019-04-10T15:04:08.745Z,16.03
2019-04-10T15:06:41.645Z,15.99
2019-04-10T15:09:25.849Z,15.92
2019-04-10T15:11:55.608Z,15.97
2019-04-10T15:14:27.842Z,16.00
2019-04-10T15:17:04.263Z,15.90
2019-04-10T15:19:32.979Z,15.87
2019-04-10T15:22:04.584Z,15.76
2019-04-10T15:24:36.235Z,15.76
2019-04-10T15:27:08.927Z,15.60
2019-04-10T15:29:40.914Z,15.65
2019-04-10T15:32:12.793Z,15.68
2019-04-10T15:34:44.441Z,15.64
2019-04-10T15:37:17.120Z,15.60
2019-04-10T15:39:49.718Z,15.50
2019-04-10T15:42:21.777Z,15.38
2019-04-10T15:44:54.468Z,15.39
2019-04-10T15:47:27.031Z,15.31
2019-04-10T15:49:59.875Z,15.28
2019-04-10T15:52:31.642Z,15.22
2019-04-10T15:55:03.702Z,15.10
2019-04-10T15:57:46.994Z,15.12
2019-04-10T16:00:10.949Z,15.13
2019-04-10T16:02:42.971Z,15.02
2019-04-10T16:05:15.426Z,15.03
2019-04-10T16:07:47.429Z,14.87
2019-04-10T16:10:37.180Z,14.80
2019-04-10T16:13:32.552Z,14.85
2019-04-10T16:16:19.434Z,14.83
2019-04-10T16:18:52.842Z,14.93
2019-04-10T16:21:24.776Z,14.83
2019-04-10T16:24:01.052Z,14.83
2019-04-10T16:26:33.584Z,14.88
2019-04-10T16:29:05.475Z,14.86
2019-04-10T16:31:37.640Z,14.85
2019-04-10T16:34:09.427Z,14.78
2019-04-10T16:36:41.650Z,14.75
2019-04-10T16:39:15.835Z,14.71
2019-04-10T16:41:50.254Z,14.67
2019-04-10T16:44:22.011Z,14.58
2019-04-10T16:46:55.890Z,14.65
2019-04-10T16:49:27.483Z,14.78
2019-04-10T16:51:59.134Z,14.79
2019-04-10T16:54:31.296Z,14.90
2019-04-10T16:57:02.992Z,14.81
2019-04-10T16:59:34.562Z,14.86
2019-04-10T17:02:07.223Z,14.95
2019-04-10T17:04:39.633Z,15.01
2019-04-10T17:07:11.595Z,15.07
2019-04-10T17:09:43.894Z,15.14
2019-04-10T17:12:17.573Z,15.08
2019-04-10T17:14:49.467Z,15.12
2019-04-10T17:17:21.861Z,15.12
2019-04-10T17:19:57.199Z,15.16
2019-04-10T17:22:35.757Z,15.18
2019-04-10T17:25:00.509Z,15.13
2019-04-10T17:27:32.182Z,15.10
2019-04-10T17:30:05.281Z,15.10
2019-04-10T17:32:38.669Z,15.14
2019-04-10T17:35:11.885Z,15.10
2019-04-10T17:37:45.621Z,15.10
2019-04-10T17:40:31.070Z,15.11
2019-04-10T17:42:52.712Z,15.10
2019-04-10T17:45:25.844Z,15.08
2019-04-10T17:48:17.795Z,15.07
2019-04-10T17:50:49.873Z,15.06
2019-04-10T17:53:23.047Z,14.98
2019-04-10T17:55:55.944Z,14.92
2019-04-10T17:58:27.649Z,14.92
2019-04-10T18:01:01.855Z,14.87
2019-04-10T18:03:43.008Z,14.85
2019-04-10T18:06:06.980Z,14.81
2019-04-10T18:08:38.624Z,14.75
2019-04-10T18:11:10.261Z,14.67
2019-04-10T18:13:42.766Z,14.63
2019-04-10T18:16:14.833Z,14.60
2019-04-10T18:18:49.747Z,14.50
2019-04-10T18:21:22.487Z,14.38
2019-04-10T18:23:54.049Z,14.18
2019-04-10T18:26:25.759Z,14.16
2019-04-10T18:28:58.244Z,14.15
2019-04-10T18:31:31.035Z,14.12
2019-04-10T18:34:03.884Z,14.08
2019-04-10T18:36:36.335Z,14.04
2019-04-10T18:39:13.952Z,14.04
2019-04-10T18:41:46.575Z,14.05
2019-04-10T18:44:18.403Z,14.02
2019-04-10T18:46:50.035Z,14.03
2019-04-10T18:49:21.655Z,14.08
2019-04-10T18:51:54.282Z,14.08
2019-04-10T18:54:26.975Z,14.16
2019-04-10T18:56:59.712Z,14.10
2019-04-10T19:00:02.330Z,14.03
2019-04-10T19:03:13.114Z,14.01
2019-04-10T19:05:48.085Z,13.97
2019-04-10T19:08:19.910Z,13.99
2019-04-10T19:10:51.738Z,13.89
2019-04-10T19:13:24.941Z,13.86
2019-04-10T19:15:57.276Z,13.83
2019-04-10T19:18:29.861Z,13.86
2019-04-10T19:21:01.568Z,13.87
2019-04-10T19:23:33.235Z,13.87
2019-04-10T19:26:08.481Z,13.85
2019-04-10T19:28:41.837Z,13.89
2019-04-10T19:31:19.448Z,13.92
2019-04-10T19:33:49.139Z,13.88
2019-04-10T19:36:20.752Z,13.87
2019-04-10T19:38:52.491Z,13.87
2019-04-10T19:41:32.783Z,13.91
2019-04-10T19:43:59.714Z,13.91
2019-04-10T19:46:31.448Z,13.91
2019-04-10T19:49:03.920Z,13.88
2019-04-10T19:51:36.390Z,13.89
2019-04-10T19:54:09.638Z,13.85
2019-04-10T19:56:43.146Z,13.78
2019-04-10T19:59:14.752Z,13.78
2019-04-10T20:01:46.543Z,13.77
2019-04-10T20:04:18.825Z,13.68
2019-04-10T20:06:50.425Z,13.46
2019-04-10T20:09:22.233Z,13.49
2019-04-10T20:11:56.205Z,13.42
2019-04-10T20:14:28.365Z,13.31
2019-04-10T20:17:00.127Z,13.26
2019-04-10T20:19:32.775Z,13.19
2019-04-10T20:22:04.592Z,13.14
2019-04-10T20:24:36.745Z,13.03
2019-04-10T20:27:08.398Z,12.99
2019-04-10T20:29:41.305Z,13.00
2019-04-10T20:32:14.099Z,12.79
2019-04-10T20:34:45.910Z,12.72
2019-04-10T20:37:18.564Z,12.63
2019-04-10T20:39:51.722Z,12.61
2019-04-10T20:42:24.033Z,12.50
2019-04-10T20:44:56.868Z,12.43
2019-04-10T20:47:28.509Z,12.45
2019-04-10T20:50:00.243Z,12.45
2019-04-10T20:52:32.544Z,12.30
2019-04-10T20:55:05.585Z,12.21
2019-04-10T20:57:37.526Z,12.11
2019-04-10T21:00:11.456Z,12.00
2019-04-10T21:02:43.150Z,11.85
2019-04-10T21:05:16.341Z,11.71
2019-04-10T21:07:48.167Z,11.65
2019-04-10T21:10:19.772Z,11.63
2019-04-10T21:12:52.469Z,11.48
2019-04-10T21:15:24.234Z,11.35
2019-04-10T21:17:56.963Z,11.40
2019-04-10T21:20:28.808Z,11.36
2019-04-10T21:23:01.378Z,11.27
2019-04-10T21:25:33.086Z,11.17
2019-04-10T21:28:04.878Z,11.12
2019-04-10T21:31:07.673Z,10.99
2019-04-10T21:34:01.403Z,10.99
2019-04-10T21:36:34.971Z,10.79
2019-04-10T21:39:09.503Z,10.79
2019-04-10T21:41:42.098Z,10.71
2019-04-10T21:44:14.787Z,10.55
2019-04-10T21:46:46.697Z,10.60
2019-04-10T21:49:18.274Z,10.54
2019-04-10T21:51:49.918Z,10.45
2019-04-10T21:54:22.410Z,10.44
2019-04-10T21:56:55.505Z,10.42
2019-04-10T21:59:27.249Z,10.22
2019-04-10T22:01:59.332Z,10.27
2019-04-10T22:04:31.064Z,10.14
2019-04-10T22:07:22.357Z,10.18
2019-04-10T22:10:09.813Z,10.10
2019-04-10T22:12:46.940Z,9.98
2019-04-10T22:15:35.885Z,10.01
2019-04-10T22:18:07.461Z,9.91
2019-04-10T22:20:39.573Z,9.83
2019-04-10T22:23:11.706Z,9.87
2019-04-10T22:25:43.769Z,9.75
2019-04-10T22:28:15.444Z,9.72
2019-04-10T22:30:48.317Z,9.66
2019-04-10T22:33:20.269Z,9.65
2019-04-10T22:35:52.542Z,9.50
2019-04-10T22:38:25.039Z,9.54
2019-04-10T22:40:56.671Z,9.42
2019-04-10T22:43:28.275Z,9.43
2019-04-10T22:46:00.478Z,9.27
2019-04-10T22:48:33.251Z,9.19
2019-04-10T22:51:07.949Z,9.16
2019-04-10T22:53:39.525Z,9.12
2019-04-10T22:56:11.238Z,9.04
2019-04-10T22:58:44.089Z,9.10
2019-04-10T23:01:15.930Z,9.03
2019-04-10T23:03:47.646Z,9.05
2019-04-10T23:06:19.204Z,9.08
2019-04-10T23:08:51.698Z,9.03
2019-04-10T23:11:33.415Z,9.05
2019-04-10T23:13:56.708Z,8.99
2019-04-10T23:16:28.452Z,8.99
2019-04-10T23:19:00.088Z,8.84
2019-04-10T23:21:32.438Z,8.88
2019-04-10T23:24:05.513Z,8.84
2019-04-10T23:26:37.508Z,8.84
2019-04-10T23:29:09.310Z,8.79
2019-04-10T23:31:43.901Z,8.73
2019-04-10T23:34:16.614Z,8.75
2019-04-10T23:36:48.673Z,8.67
2019-04-10T23:39:20.306Z,8.63
2019-04-10T23:41:52.451Z,8.61
2019-04-10T23:44:24.869Z,8.68
2019-04-10T23:46:57.783Z,8.80
2019-04-10T23:49:29.849Z,8.68
2019-04-10T23:52:01.537Z,8.73
2019-04-10T23:54:33.378Z,8.81
2019-04-10T23:57:05.226Z,8.75
2019-04-10T23:59:37.134Z,8.65
